Home > Products > Valid Products > MTR

000
SAUS42 KCHS 300457
MTRNBC
METAR KNBC 300456Z AUTO 00000KT 10SM CLR 24/22 A2994 RMK AO2 SLP139
T02390217 403220222





000
SAUS42 KCHS 300357
MTRNBC
METAR KNBC 300356Z AUTO 00000KT 10SM CLR 24/22 A2995 RMK AO2 SLP141
T02440217





000
SAUS42 KCHS 300258
MTRNBC
METAR KNBC 300256Z 00000KT 10SM CLR 25/21 A2995 RMK AO2 SLP143
T02500206 51015





000
SAUS42 KCHS 300157
MTRNBC
METAR KNBC 300156Z 00000KT 10SM CLR 26/21 A2995 RMK AO2 SLP141
T02610211





000
SAUS42 KCHS 300057
MTRNBC
METAR KNBC 300056Z 00000KT 10SM FEW040 27/21 A2993 RMK AO2 SLP135
T02670206





000
SAUS42 KCHS 292357
MTRNBC
METAR KNBC 292356Z 06003KT 10SM SCT040 29/19 A2991 RMK AO2 SLP128
T02890194 10322 20289 53006





000
SAUS42 KCHS 292257
MTRNBC
METAR KNBC 292256Z 03006KT 10SM SCT040 31/17 A2990 RMK AO2 SLP124
T03110167





000
SAUS42 KCHS 292157
MTRNBC
METAR KNBC 292156Z 04005KT 10SM SCT060 32/17 A2989 RMK AO2 SLP122
T03220172





000
SAUS42 KCHS 292057
MTRNBC
METAR KNBC 292056Z 03004KT 10SM SCT050 32/18 A2989 RMK AO2 SLP122
T03220183 56009





000
SAUS42 KCHS 291957
MTRNBC
METAR KNBC 291956Z VRB03KT 10SM SCT050 32/19 A2990 RMK AO2 SLP125
T03170194





000
SAUS42 KCHS 291857
MTRNBC
METAR KNBC 291856Z 17005KT 10SM BKN040 31/20 A2990 RMK AO2 SLP127
T03110200





000
SAUS42 KCHS 291757
MTRNBC
METAR KNBC 291756Z 00000KT 10SM SCT050 SCT100 31/19 A2992 RMK AO2
SLP131 T03060194 10306 20239 58006





000
SAUS42 KCHS 291657
MTRNBC
METAR KNBC 291656Z 14004KT 10SM FEW050 FEW100 30/19 A2993 RMK AO2
SLP134 T03000189





000
SAUS42 KCHS 291557
MTRNBC
METAR KNBC 291556Z 05005KT 10SM CLR 29/18 A2993 RMK AO2 SLP137
T02940183





000
SAUS42 KCHS 291457
MTRNBC
METAR KNBC 291456Z 08009KT 10SM CLR 28/18 A2993 RMK AO2 SLP136
T02830178 53011





000
SAUS42 KCHS 291359
MTRNBC
METAR KNBC 291356Z 08010KT 10SM CLR 27/18 A2992 RMK AO2 SLP131
T02720178





000
SAUS42 KCHS 291257
MTRNBC
METAR KNBC 291256Z 07008KT 7SM SCT100 26/18 A2991 RMK AO2 SLP129
T02560183





000
SAUS42 KCHS 291157
MTRNBC
METAR KNBC 291156Z 04007KT 10SM FEW100 24/18 A2990 RMK AO2 SLP125
70038 T02390183 10261 20222 51011





000
SAUS42 KCHS 291058
MTRNBC
METAR KNBC 291056Z 36003KT 10SM SCT070 23/18 A2989 RMK AO2 SLP123
T02280183





000
SAUS42 KCHS 291028
MTRNBC
SPECI KNBC 291027Z 05004KT 10SM SCT070 22/19 A2989 RMK AO2 FIRST
T02220189





000
SAUS42 KCHS 290957
MTRNBC
METAR KNBC 290956Z AUTO 04008KT 10SM SCT080 23/18 A2988 RMK AO2
SLP117 T02330183





000
SAUS42 KCHS 290857
MTRNBC
METAR KNBC 290856Z AUTO 02006KT 10SM FEW080 24/19 A2987 RMK AO2
SLP114 T02390194 53007





000
SAUS42 KCHS 290757
MTRNBC
METAR KNBC 290756Z AUTO 01005KT 10SM CLR 25/21 A2985 RMK AO2 SLP109
T02500206





000
SAUS42 KCHS 290657
MTRNBC
METAR KNBC 290656Z AUTO 02005KT 10SM FEW080 26/21 A2984 RMK AO2
SLP106 T02560211





000
SAUS42 KCHS 290557
MTRNBC
METAR KNBC 290556Z AUTO 36008KT 10SM SCT085 26/22 A2985 RMK AO2
SLP107 T02610217 10294 20261 58005





000
SAUS42 KCHS 290457
MTRNBC
METAR KNBC 290456Z AUTO 34004KT 10SM FEW065 SCT090 27/22 A2986 RMK
AO2 SLP110 T02670222 403560244





000
SAUS42 KCHS 290357
MTRNBC
METAR KNBC 290356Z 35007KT 10SM FEW070 SCT085 28/23 A2985 RMK AO2
SLP110 T02830228





000
SAUS42 KCHS 290258
MTRNBC
METAR KNBC 290256Z 29007KT 10SM FEW050 SCT100 28/23 A2986 RMK AO2
SLP112 T02780233 53015





000
SAUS42 KCHS 290157
MTRNBC
METAR KNBC 290156Z 30005KT 10SM SCT030 BKN150 29/24 A2985 RMK AO2
SLP107 T02890239





000
SAUS42 KCHS 290057
MTRNBC
METAR KNBC 290056Z 29006KT 10SM SCT030 BKN080 BKN250 29/24 A2983 RMK
AO2 SLP102 T02890244





000
SAUS42 KCHS 282357
MTRNBC
METAR KNBC 282356Z 26003KT 10SM FEW030 SCT080 BKN150 29/26 A2982 RMK
AO2 SLP097 60038 T02940261 10356 20244 55003





000
SAUS42 KCHS 282257
MTRNBC
METAR KNBC 282256Z 24003KT 10SM SCT030 BKN100 BKN150 29/24 A2981 RMK
AO2 TSE31 SLP094 T02940244





000
SAUS42 KCHS 282255
MTRNBC
SPECI KNBC 282254Z 24003KT 10SM SCT030 BKN100 BKN150 29/24 A2981 RMK
AO2 TSE31





000
SAUS42 KCHS 282238
MTRNBC
SPECI KNBC 282237Z 23003KT 10SM VCTS SCT030CB BKN100 BKN150 29/24
A2981 RMK AO2 TSE31 CB 8E MOV E T02890239





000
SAUS42 KCHS 282157
MTRNBC
METAR KNBC 282156Z 05006KT 7SM TS FEW024 BKN048CB BKN070 28/21 A2983
RMK AO2 RAB30E46 TSB30B43 SLP100 FREQ LTGICCCCG OHD TS OHD MOV E CB
OHD MOV E P0001 T02830211





000
SAUS42 KCHS 282137
MTRNBC
SPECI KNBC 282136Z 27007KT 4SM TSRA BR SCT030CB BKN100 BKN150 29/26
A2982 RMK AO2 RAB30 TSB30 ONCL LTGICCCCG OHD TS W MOV E CB W MOV E
CB 10NW MOV E P0001 T02940256





000
SAUS42 KCHS 282057
MTRNBC
METAR KNBC 282056Z 31008KT 7SM VCTS SCT030CB BKN100 BKN150 31/25
A2982 RMK AO2 RAE10B25E40 TSE37B38E53 SLP099 OCNL LTGICCCCG 7S TS 7S
MOV E CB 7S MOV E P0010 60037 T03110250 58013





000
SAUS42 KCHS 282012
MTRNBC
SPECI KNBC 282010Z 00000KT 7SM TS BKN027CB BKN050 BKN070 25/22 A2984
RMK AO2 RAE10 CONS LTGICCCCG OHD TS OHD MOV E CB OHD MOV E P0010
T02500222





000
SAUS42 KCHS 282005
MTRNBC
SPECI KNBC 282003Z 25009G35KT 2SM TSRA BR BKN027CB BKN050 BKN070
25/21 A2985 RMK AO2 CONS LTGICCCCG OHD TS OHD MOV E CB OHD MOV E
P0010 T02500211





000
SAUS42 KCHS 281958
MTRNBC
METAR KNBC 281956Z 1 1/2SM TSRA BR BKN012 BKN030CB BKN140 26/21
A2988 RMK AO2 PK WND 31035/1955 RAB44 TSB17B30 PRESRR SLP118 FREQ
LTGICCCCG OHD TS OHD MOV E CB OHD MOV E P0027 T02560206





000
SAUS42 KCHS 281924
MTRNBC
SPECI KNBC 281923Z AUTO 31011G19KT 10SM TS SCT040CB BKN100 BKN250
34/23 A2983 RMK AO2 TSB17 OCNL LTGICCCCG OHD TS OHD MOV W CB OHD MOV
W T03390228





000
SAUS42 KCHS 281857
MTRNBC
METAR KNBC 281856Z 30013G18KT 10SM SCT045 BKN140 BKN250 35/23 A2984
RMK AO2 SLP105 T03500233





000
SAUS42 KCHS 281757
MTRNBC
METAR KNBC 281756Z 32012G18KT 280V360 10SM SCT045 BKN110 34/23 A2986
RMK AO2 SLP112 T03440233 10350 20278 58013





000
SAUS42 KCHS 281657
MTRNBC
METAR KNBC 281656Z 32013KT 10SM FEW040 SCT100 SCT200 34/24 A2987 RMK
AO2 SLP117 T03440239





000
SAUS42 KCHS 281557
MTRNBC
METAR KNBC 281556Z 30012G19KT 10SM FEW040 SCT100 SCT200 33/24 A2989
RMK AO2 SLP122 T03330239





000
SAUS42 KCHS 281457
MTRNBC
METAR KNBC 281456Z 28011KT 10SM SCT100 BKN200 32/25 A2990 RMK AO2
SLP125 T03220250 55001





000
SAUS42 KCHS 281357
MTRNBC
METAR KNBC 281356Z 28012KT 10SM SCT100 BKN200 31/24 A2990 RMK AO2
SLP125 T03060244





000
SAUS42 KCHS 281257
MTRNBC
METAR KNBC 281256Z 29013KT 9SM SCT100 BKN200 29/24 A2990 RMK AO2
SLP126 T02890239





000
SAUS42 KCHS 281157
MTRNBC
METAR KNBC 281156Z 28011KT 9SM SCT200 28/24 A2990 RMK AO2 SLP126
T02780239 10289 20272 56001





000
SAUS42 KCHS 281057
MTRNBC
METAR KNBC 281056Z 29008KT 9SM SCT200 27/23 A2991 RMK AO2 SLP127
T02720233





000
SAUS42 KCHS 281033
MTRNBC
SPECI KNBC 281032Z 29010KT 10SM SCT200 27/23 A2990 RMK AO2 FIRST
T02720233





000
SAUS42 KCHS 280957
MTRNBC
METAR KNBC 280956Z AUTO 29008KT 10SM CLR 28/23 A2990 RMK AO2 SLP125
T02780233





000
SAUS42 KCHS 280857
MTRNBC
METAR KNBC 280856Z AUTO 29009KT 10SM CLR 28/23 A2991 RMK AO2 SLP127
T02780228 53001





000
SAUS42 KCHS 280757
MTRNBC
METAR KNBC 280756Z AUTO 28008KT 10SM CLR 28/23 A2990 RMK AO2 SLP125
T02780228





000
SAUS42 KCHS 280657
MTRNBC
METAR KNBC 280656Z AUTO 30010KT 10SM CLR 28/22 A2990 RMK AO2 SLP125
T02830222





000
SAUS42 KCHS 280557
MTRNBC
METAR KNBC 280556Z AUTO 28008KT 10SM CLR 29/23 A2990 RMK AO2 SLP127
T02890228 10322 20283 56008





000
SAUS42 KCHS 280457
MTRNBC
METAR KNBC 280456Z AUTO 26004KT 10SM CLR 29/23 A2990 RMK AO2 SLP126
T02890233 403500250





000
SAUS42 KCHS 280357
MTRNBC
METAR KNBC 280356Z AUTO 26005KT 10SM CLR 29/23 A2991 RMK AO2 SLP129
T02890233





000
SAUS42 KCHS 280257
MTRNBC
METAR KNBC 280256Z AUTO 28005KT 10SM CLR 29/23 A2993 RMK AO2 SLP135
T02890233 50001





000
SAUS42 KCHS 280157
MTRNBC
METAR KNBC 280156Z AUTO 28005KT 10SM CLR 29/23 A2994 RMK AO2 SLP138
T02890233





000
SAUS42 KCHS 280057
MTRNBC
METAR KNBC 280056Z AUTO 26006KT 10SM CLR 30/24 A2993 RMK AO2 SLP134
T03000239





000
SAUS42 KCHS 272357
MTRNBC
METAR KNBC 272356Z AUTO 30006KT 10SM CLR 32/22 A2993 RMK AO2 SLP134
T03220222 10350 20322 53001





000
SAUS42 KCHS 272257
MTRNBC
METAR KNBC 272256Z AUTO 29010KT 10SM CLR 34/22 A2991 RMK AO2 SLP130
T03390217





000
SAUS42 KCHS 272157
MTRNBC
METAR KNBC 272156Z AUTO 30010KT 10SM FEW100 SCT200 34/22 A2992 RMK
AO2 SLP131 LAST T03440217





000
SAUS42 KCHS 272057
MTRNBC
METAR KNBC 272056Z 28010KT 10SM FEW050 FEW100 SCT200 35/23 A2992 RMK
AO2 SLP133 T03500228 56019





000
SAUS42 KCHS 271957
MTRNBC
METAR KNBC 271956Z 30011KT 10SM FEW050 SCT100 SCT200 34/22 A2993 RMK
AO2 SLP136 FIRST T03440222





000
SAUS42 KCHS 271934
MTRNBC
SPECI KNBC 271933Z 29012KT 10SM FEW050 SCT100 SCT200 34/22 A2994 RMK
AO2 FIRST T03440222





000
SAUS42 KCHS 271857
MTRNBC
METAR KNBC 271856Z AUTO 31012G18KT 10SM CLR 34/22 A2996 RMK AO2
SLP147 T03440217





000
SAUS42 KCHS 271757
MTRNBC
METAR KNBC 271756Z AUTO 30009KT 10SM CLR 34/22 A2998 RMK AO2 SLP152
T03390222 10339 20261 58008





000
SAUS42 KCHS 271657
MTRNBC
METAR KNBC 271656Z AUTO 32011G19KT 10SM SCT120 33/21 A2999 RMK AO2
SLP157 T03330211





000
SAUS42 KCHS 271557
MTRNBC
METAR KNBC 271556Z AUTO 30011G17KT 10SM CLR 33/22 A3000 RMK AO2
SLP158 T03280222





000
SAUS42 KCHS 271457
MTRNBC
METAR KNBC 271456Z AUTO 32008KT 10SM CLR 31/23 A3001 RMK AO2 SLP161
T03110228 50001





000
SAUS42 KCHS 271357
MTRNBC
METAR KNBC 271356Z AUTO 26008KT 10SM SCT100 29/23 A3001 RMK AO2
SLP162 T02940228





000
SAUS42 KCHS 271257
MTRNBC
METAR KNBC 271256Z AUTO 30008KT 10SM SCT110 28/23 A3001 RMK AO2
SLP164 T02780228





000
SAUS42 KCHS 271157
MTRNBC
METAR KNBC 271156Z AUTO 29006KT 8SM CLR 26/23 A3000 RMK AO2 SLP159
T02610233 10272 20250 53012





000
SAUS42 KCHS 271057
MTRNBC
METAR KNBC 271056Z AUTO 26005KT 5SM BR CLR 25/24 A2998 RMK AO2
SLP153 T02500239





000
SAUS42 KCHS 270957
MTRNBC
METAR KNBC 270956Z AUTO 27005KT 5SM BR CLR 26/24 A2998 RMK AO2
SLP153 T02560244





000
SAUS42 KCHS 270857
MTRNBC
METAR KNBC 270856Z AUTO 28005KT 5SM BR CLR 26/24 A2997 RMK AO2
SLP147 T02610244 55005





000
SAUS42 KCHS 270757
MTRNBC
METAR KNBC 270756Z AUTO 27005KT 5SM BR CLR 26/24 A2996 RMK AO2
SLP146 T02610244





000
SAUS42 KCHS 270657
MTRNBC
METAR KNBC 270656Z AUTO 25003KT 6SM BR CLR 27/25 A2997 RMK AO2
SLP149 T02670250





000
SAUS42 KCHS 270601
MTRNBC
METAR KNBC 270556Z AUTO 00000KT 6SM BR CLR 27/26 A2998 RMK AO2
SLP152 T02720256 10306 20267 58014





    US Dept of Commerce
    National Oceanic and Atmospheric Administration
    National Weather Service
    1325 East West Highway
    Silver Spring, MD 20910
    Page Author: NWS Internet Services Team
Disclaimer
Information Quality
Credits
Glossary
Privacy Policy
Freedom of Information Act (FOIA)
About Us
Career Opportunities